| time (UTC) | temp F | wind direction | speed MPH | gust MPH | rain 1hr in | rain 24hr in | rain mn in | humidity % | barometer mb |
| 20260507222450 | 49 | 189 | 1.0 | 4.0 | 0.00 | 0.01 | 0.01 | 47 | 1019.1 |
| 20260507221943 | 49 | 189 | 2.0 | 4.0 | 0.00 | 0.01 | 0.01 | 47 | 1019.1 |
| 20260507221436 | 48 | 224 | 2.0 | 3.0 | 0.00 | 0.01 | 0.01 | 52 | 1019.2 |
| 20260507220931 | 48 | 239 | 2.0 | 3.0 | 0.00 | 0.01 | 0.01 | 50 | 1019.1 |
| 20260507220648 | 48 | 204 | 2.0 | 3.0 | 0.00 | 0.01 | 0.01 | 51 | 1019.2 |
| 20260507215918 | 47 | 220 | 2.0 | 4.0 | 0.00 | 0.01 | 0.01 | 50 | 1019.2 |
| 20260507215412 | 47 | 252 | 2.0 | 4.0 | 0.00 | 0.01 | 0.01 | 50 | 1019.4 |
| 20260507214906 | 47 | 208 | 1.0 | 4.0 | 0.00 | 0.01 | 0.01 | 48 | 1019.4 |
| 20260507214401 | 47 | 175 | 1.0 | 4.0 | 0.00 | 0.01 | 0.01 | 48 | 1019.4 |
| 20260507213855 | 48 | 176 | 1.0 | 4.0 | 0.00 | 0.01 | 0.01 | 47 | 1019.5 |
| 20260507213612 | 47 | 241 | 1.0 | 4.0 | 0.00 | 0.01 | 0.01 | 50 | 1019.5 |
| 20260507212857 | 47 | 359 | 1.0 | 5.0 | 0.00 | 0.01 | 0.01 | 45 | 1019.6 |
| 20260507212337 | 47 | 21 | 2.0 | 5.0 | 0.00 | 0.01 | 0.01 | 49 | 1019.6 |
| 20260507211830 | 47 | 150 | 3.0 | 5.0 | 0.00 | 0.01 | 0.01 | 48 | 1019.6 |
| 20260507211325 | 47 | 141 | 5.0 | 10.0 | 0.00 | 0.01 | 0.01 | 46 | 1019.8 |
| 20260507210819 | 47 | 79 | 6.0 | 10.0 | 0.00 | 0.01 | 0.01 | 42 | 1019.8 |
| 20260507210312 | 47 | 85 | 6.0 | 14.0 | 0.00 | 0.01 | 0.01 | 45 | 1019.8 |
| 20260507210031 | 47 | 73 | 5.0 | 14.0 | 0.00 | 0.01 | 0.01 | 42 | 1019.8 |
| 20260507205301 | 48 | 112 | 3.0 | 11.0 | 0.00 | 0.01 | 0.01 | 49 | 1019.8 |
| 20260507204754 | 48 | 111 | 3.0 | 7.0 | 0.00 | 0.01 | 0.01 | 49 | 1019.8 |
| 20260507204248 | 48 | 120 | 3.0 | 7.0 | 0.00 | 0.01 | 0.01 | 45 | 1019.9 |
| 20260507204006 | 49 | 58 | 6.0 | 12.0 | 0.00 | 0.01 | 0.01 | 43 | 1019.9 |
| 20260507203246 | 48 | 66 | 8.0 | 12.0 | 0.00 | 0.01 | 0.01 | 46 | 1020.0 |
| 20260507203004 | 49 | 108 | 7.0 | 14.0 | 0.00 | 0.01 | 0.01 | 45 | 1019.9 |
| 20260507202246 | 49 | 109 | 7.0 | 14.0 | 0.00 | 0.01 | 0.01 | 42 | 1020.0 |
| 20260507201747 | 49 | 63 | 5.0 | 14.0 | 0.00 | 0.01 | 0.01 | 44 | 1020.2 |
| 20260507201247 | 49 | 41 | 3.0 | 10.0 | 0.00 | 0.01 | 0.01 | 43 | 1020.2 |
| 20260507200747 | 48 | 8 | 5.0 | 12.0 | 0.00 | 0.01 | 0.01 | 43 | 1020.4 |
| 20260507200247 | 48 | 130 | 6.0 | 13.0 | 0.00 | 0.01 | 0.01 | 45 | 1020.4 |
| 20260507195746 | 48 | 39 | 6.0 | 14.0 | 0.00 | 0.01 | 0.01 | 46 | 1020.4 |
| 20260507195517 | 48 | 111 | 7.0 | 14.0 | 0.00 | 0.01 | 0.01 | 46 | 1020.3 |
| 20260507194747 | 48 | 52 | 6.0 | 13.0 | 0.00 | 0.01 | 0.01 | 40 | 1020.4 |
| 20260507194243 | 49 | 60 | 4.0 | 10.0 | 0.00 | 0.01 | 0.01 | 43 | 1020.4 |
| 20260507193742 | 49 | 59 | 6.0 | 12.0 | 0.00 | 0.01 | 0.01 | 38 | 1020.5 |
| 20260507193242 | 49 | 102 | 5.0 | 12.0 | 0.00 | 0.01 | 0.01 | 45 | 1020.7 |
| 20260507192743 | 49 | 147 | 4.0 | 11.0 | 0.00 | 0.01 | 0.01 | 41 | 1020.7 |
| 20260507192243 | 49 | 331 | 4.0 | 11.0 | 0.00 | 0.01 | 0.01 | 43 | 1020.9 |
| 20260507191743 | 49 | 21 | 4.0 | 9.0 | 0.00 | 0.01 | 0.01 | 43 | 1020.8 |
| 20260507191243 | 49 | 168 | 4.0 | 8.0 | 0.00 | 0.01 | 0.01 | 47 | 1020.7 |
| 20260507190743 | 49 | 281 | 3.0 | 7.0 | 0.00 | 0.01 | 0.01 | 43 | 1020.7 |
| 20260507190243 | 49 | 188 | 2.0 | 6.0 | 0.00 | 0.01 | 0.01 | 46 | 1020.9 |
| 20260507185740 | 48 | 206 | 3.0 | 8.0 | 0.00 | 0.01 | 0.01 | 48 | 1020.9 |
| 20260507185238 | 47 | 71 | 3.0 | 9.0 | 0.00 | 0.01 | 0.01 | 42 | 1021.1 |
| 20260507184954 | 48 | 230 | 4.0 | 10.0 | 0.00 | 0.01 | 0.01 | 42 | 1020.9 |
| 20260507184239 | 47 | 199 | 5.0 | 12.0 | 0.00 | 0.01 | 0.01 | 50 | 1020.9 |
| 20260507183739 | 47 | 218 | 6.0 | 13.0 | 0.00 | 0.01 | 0.01 | 46 | 1020.9 |
| 20260507183238 | 47 | 212 | 6.0 | 13.0 | 0.00 | 0.01 | 0.01 | 44 | 1020.9 |
| 20260507182738 | 47 | 191 | 5.0 | 11.0 | 0.00 | 0.01 | 0.01 | 42 | 1020.9 |
| 20260507182240 | 48 | 173 | 5.0 | 10.0 | 0.00 | 0.01 | 0.01 | 49 | 1020.9 |
| 20260507181739 | 47 | 125 | 6.0 | 15.0 | 0.00 | 0.01 | 0.01 | 43 | 1020.9 |
| 20260507181231 | 47 | 4 | 6.0 | 15.0 | 0.00 | 0.01 | 0.01 | 36 | 1020.9 |
| 20260507180725 | 48 | 44 | 6.0 | 13.0 | 0.00 | 0.01 | 0.01 | 41 | 1021.1 |
| 20260507180220 | 48 | 89 | 5.0 | 13.0 | 0.00 | 0.01 | 0.01 | 40 | 1021.1 |
| 20260507175714 | 49 | 57 | 2.0 | 7.0 | 0.00 | 0.01 | 0.01 | 38 | 1021.2 |
| 20260507175441 | 49 | 72 | 2.0 | 5.0 | 0.00 | 0.01 | 0.01 | 41 | 1021.2 |
| 20260507174701 | 48 | 44 | 3.0 | 5.0 | 0.00 | 0.01 | 0.01 | 41 | 1021.2 |
| 20260507174156 | 47 | 32 | 4.0 | 12.0 | 0.00 | 0.01 | 0.01 | 39 | 1021.2 |
| 20260507173650 | 47 | 344 | 4.0 | 12.0 | 0.00 | 0.01 | 0.01 | 37 | 1021.2 |
| 20260507173144 | 47 | 316 | 3.0 | 9.0 | 0.00 | 0.01 | 0.01 | 39 | 1021.2 |
| 20260507172901 | 47 | 359 | 5.0 | 10.0 | 0.00 | 0.01 | 0.01 | 39 | 1021.2 |
| 20260507172132 | 46 | 53 | 6.0 | 12.0 | 0.00 | 0.01 | 0.01 | 38 | 1021.3 |
| 20260507171626 | 47 | 34 | 5.0 | 12.0 | 0.00 | 0.01 | 0.01 | 35 | 1021.3 |
| 20260507171119 | 48 | 35 | 3.0 | 8.0 | 0.00 | 0.01 | 0.01 | 32 | 1021.3 |
| 20260507170614 | 48 | 14 | 3.0 | 7.0 | 0.00 | 0.01 | 0.01 | 36 | 1021.3 |
| 20260507170108 | 48 | 287 | 3.0 | 7.0 | 0.00 | 0.01 | 0.01 | 37 | 1021.3 |
| 20260507165601 | 49 | 241 | 2.0 | 5.0 | 0.00 | 0.01 | 0.01 | 44 | 1021.5 |
| 20260507165057 | 48 | 111 | 1.0 | 3.0 | 0.00 | 0.01 | 0.01 | 43 | 1021.5 |
| 20260507164550 | 48 | 304 | 2.0 | 5.0 | 0.00 | 0.01 | 0.01 | 44 | 1021.5 |
| 20260507164044 | 48 | 219 | 2.0 | 5.0 | 0.00 | 0.01 | 0.01 | 49 | 1021.5 |
| 20260507163538 | 47 | 248 | 2.0 | 6.0 | 0.00 | 0.01 | 0.01 | 47 | 1021.5 |
| 20260507163032 | 46 | 249 | 2.0 | 6.0 | 0.00 | 0.01 | 0.01 | 46 | 1021.5 |
| 20260507162525 | 48 | 70 | 2.0 | 6.0 | 0.00 | 0.01 | 0.01 | 43 | 1021.5 |
| 20260507162019 | 48 | 56 | 2.0 | 6.0 | 0.00 | 0.01 | 0.01 | 44 | 1021.5 |
| 20260507161739 | 49 | 164 | 1.0 | 4.0 | 0.00 | 0.01 | 0.01 | 44 | 1021.5 |
| 20260507161008 | 49 | 158 | 1.0 | 4.0 | 0.00 | 0.01 | 0.01 | 51 | 1021.5 |
| 20260507160501 | 48 | 158 | 2.0 | 4.0 | 0.00 | 0.01 | 0.01 | 50 | 1021.5 |
| 20260507155956 | 48 | 169 | 2.0 | 5.0 | 0.00 | 0.01 | 0.01 | 50 | 1021.5 |
| 20260507155449 | 47 | 163 | 2.0 | 5.0 | 0.00 | 0.01 | 0.01 | 56 | 1021.3 |
| 20260507154944 | 47 | 156 | 2.0 | 5.0 | 0.00 | 0.01 | 0.01 | 59 | 1021.3 |
| 20260507154706 | 47 | 172 | 2.0 | 5.0 | 0.00 | 0.01 | 0.01 | 60 | 1021.3 |
| 20260507153932 | 47 | 188 | 2.0 | 4.0 | 0.00 | 0.01 | 0.01 | 55 | 1021.3 |
| 20260507153425 | 46 | 210 | 2.0 | 4.0 | 0.00 | 0.01 | 0.01 | 55 | 1021.2 |
| 20260507152920 | 46 | 181 | 3.0 | 6.0 | 0.00 | 0.01 | 0.01 | 58 | 1021.3 |
| 20260507152414 | 45 | 181 | 4.0 | 7.0 | 0.00 | 0.01 | 0.01 | 50 | 1021.3 |
| 20260507151908 | 45 | 191 | 4.0 | 8.0 | 0.00 | 0.01 | 0.01 | 56 | 1021.3 |
| 20260507151402 | 44 | 183 | 4.0 | 8.0 | 0.00 | 0.01 | 0.01 | 58 | 1021.3 |
| 20260507150856 | 44 | 212 | 3.0 | 7.0 | 0.00 | 0.01 | 0.01 | 60 | 1021.3 |
| 20260507150350 | 44 | 193 | 4.0 | 7.0 | 0.00 | 0.01 | 0.01 | 54 | 1021.2 |
| 20260507145843 | 43 | 189 | 4.0 | 6.0 | 0.00 | 0.01 | 0.01 | 59 | 1021.2 |
| 20260507145339 | 42 | 184 | 4.0 | 6.0 | 0.00 | 0.01 | 0.01 | 60 | 1021.2 |
| 20260507144832 | 41 | 206 | 4.0 | 6.0 | 0.00 | 0.01 | 0.01 | 65 | 1021.2 |
| 20260507144326 | 41 | 193 | 4.0 | 6.0 | 0.00 | 0.01 | 0.01 | 64 | 1021.2 |
| 20260507143819 | 41 | 188 | 4.0 | 6.0 | 0.00 | 0.01 | 0.01 | 64 | 1021.2 |
| 20260507143314 | 40 | 191 | 4.0 | 6.0 | 0.00 | 0.01 | 0.01 | 64 | 1021.1 |
| 20260507142808 | 39 | 201 | 3.0 | 6.0 | 0.00 | 0.01 | 0.01 | 68 | 1021.1 |
| 20260507142302 | 38 | 177 | 3.0 | 6.0 | 0.00 | 0.01 | 0.01 | 69 | 1020.9 |
| 20260507141756 | 37 | 201 | 3.0 | 6.0 | 0.00 | 0.01 | 0.01 | 72 | 1020.9 |
| 20260507141249 | 36 | 199 | 4.0 | 6.0 | 0.00 | 0.01 | 0.01 | 74 | 1020.9 |
| 20260507140743 | 36 | 213 | 5.0 | 8.0 | 0.01 | 0.01 | 0.01 | 73 | 1021.2 |
| 20260507140503 | 35 | 222 | 5.0 | 10.0 | 0.01 | 0.01 | 0.01 | 72 | 1021.1 |
| 20260507135732 | 35 | 221 | 6.0 | 10.0 | 0.01 | 0.01 | 0.01 | 70 | 1021.2 |
| 20260507135225 | 35 | 228 | 5.0 | 8.0 | 0.01 | 0.01 | 0.01 | 71 | 1021.1 |
| 20260507134936 | 35 | 218 | 5.0 | 8.0 | 0.01 | 0.01 | 0.01 | 72 | 1021.2 |
| 20260507134214 | 36 | 229 | 5.0 | 8.0 | 0.01 | 0.01 | 0.01 | 68 | 1021.1 |
| 20260507133708 | 37 | 218 | 4.0 | 7.0 | 0.01 | 0.01 | 0.01 | 69 | 1021.1 |
| 20260507133201 | 37 | 220 | 1.0 | 5.0 | 0.01 | 0.01 | 0.01 | 61 | 1020.9 |
| 20260507132656 | 38 | 287 | 0.0 | 1.0 | 0.01 | 0.01 | 0.01 | 66 | 1020.9 |
| 20260507132154 | 38 | 287 | 0.0 | 1.0 | 0.01 | 0.01 | 0.01 | 54 | 1020.9 |
| 20260507131644 | 38 | 291 | 0.0 | 0.0 | 0.01 | 0.01 | 0.01 | 55 | 1020.7 |
| 20260507131138 | 37 | 239 | 0.0 | 0.0 | 0.01 | 0.01 | 0.01 | 51 | 1020.7 |
| 20260507130632 | 37 | 199 | 0.0 | 0.0 | 0.00 | 0.00 | 0.00 | 55 | 1020.7 |
| 20260507130126 | 36 | 199 | 0.0 | 0.0 | 0.00 | 0.00 | 0.00 | 54 | 1020.7 |
| 20260507125620 | 36 | 197 | 0.0 | 0.0 | 0.00 | 0.00 | 0.00 | 55 | 1020.7 |
| 20260507125115 | 36 | 195 | 0.0 | 0.0 | 0.00 | 0.00 | 0.00 | 55 | 1020.7 |
| 20260507124827 | 36 | 194 | 0.0 | 0.0 | 0.00 | 0.00 | 0.00 | 53 | 1020.7 |
| 20260507124106 | 35 | 194 | 0.0 | 0.0 | 0.00 | 0.00 | 0.00 | 54 | 1020.5 |
| 20260507123606 | 35 | 194 | 0.0 | 0.0 | 0.00 | 0.00 | 0.00 | 55 | 1020.4 |
| 20260507123104 | 34 | 194 | 0.0 | 0.0 | 0.00 | 0.00 | 0.00 | 55 | 1020.4 |
| 20260507122604 | 33 | 194 | 0.0 | 0.0 | 0.00 | 0.00 | 0.00 | 54 | 1020.3 |
| 20260507122104 | 33 | 194 | 0.0 | 0.0 | 0.00 | 0.00 | 0.00 | 56 | 1020.2 |
| 20260507121602 | 33 | 193 | 0.0 | 0.0 | 0.00 | 0.00 | 0.00 | 54 | 1020.2 |
| 20260507121101 | 33 | 194 | 0.0 | 0.0 | 0.00 | 0.00 | 0.00 | 56 | 1020.2 |
| 20260507120602 | 33 | 193 | 0.0 | 0.0 | 0.00 | 0.00 | 0.00 | 55 | 1020.0 |
| 20260507120100 | 33 | 193 | 0.0 | 0.0 | 0.00 | 0.00 | 0.00 | 55 | 1020.0 |
| 20260507115600 | 33 | 194 | 0.0 | 0.0 | 0.00 | 0.00 | 0.00 | 55 | 1020.0 |
| 20260507115100 | 33 | 193 | 0.0 | 0.0 | 0.00 | 0.00 | 0.00 | 55 | 1019.9 |
| 20260507114559 | 33 | 193 | 0.0 | 0.0 | 0.00 | 0.00 | 0.00 | 55 | 1019.9 |
| 20260507114101 | 33 | 194 | 0.0 | 0.0 | 0.00 | 0.00 | 0.00 | 56 | 1019.9 |
| 20260507113557 | 32 | 194 | 0.0 | 0.0 | 0.00 | 0.00 | 0.00 | 57 | 1019.9 |
| 20260507113058 | 32 | 194 | 0.0 | 0.0 | 0.00 | 0.00 | 0.00 | 57 | 1019.9 |
| 20260507112556 | 32 | 193 | 0.0 | 0.0 | 0.00 | 0.00 | 0.00 | 58 | 1020.0 |
| 20260507112055 | 32 | 194 | 0.0 | 0.0 | 0.00 | 0.00 | 0.00 | 58 | 1020.0 |
| 20260507111557 | 32 | 194 | 0.0 | 0.0 | 0.00 | 0.00 | 0.00 | 59 | 1020.0 |
| 20260507111054 | 32 | 193 | 0.0 | 0.0 | 0.00 | 0.00 | 0.00 | 58 | 1019.9 |
| 20260507110821 | 32 | 193 | 0.0 | 0.0 | 0.00 | 0.00 | 0.00 | 59 | 1019.8 |
| 20260507110320 | 31 | 194 | 0.0 | 0.0 | 0.00 | 0.00 | 0.00 | 60 | 1019.9 |
| 20260507105552 | 31 | 194 | 0.0 | 0.0 | 0.00 | 0.00 | 0.00 | 61 | 1019.8 |
| 20260507105050 | 31 | 194 | 0.0 | 0.0 | 0.00 | 0.00 | 0.00 | 60 | 1019.6 |
| 20260507104550 | 31 | 193 | 0.0 | 0.0 | 0.00 | 0.00 | 0.00 | 61 | 1019.6 |
| 20260507104308 | 31 | 194 | 0.0 | 0.0 | 0.00 | 0.00 | 0.00 | 61 | 1019.8 |
| 20260507103550 | 30 | 194 | 0.0 | 0.0 | 0.00 | 0.00 | 0.00 | 64 | 1019.9 |
| 20260507103049 | 30 | 194 | 0.0 | 0.0 | 0.00 | 0.00 | 0.00 | 64 | 1019.9 |
| 20260507102549 | 30 | 194 | 0.0 | 0.0 | 0.00 | 0.00 | 0.00 | 64 | 1019.9 |
| 20260507102050 | 31 | 194 | 0.0 | 0.0 | 0.00 | 0.00 | 0.00 | 64 | 1019.8 |
| 20260507101550 | 30 | 193 | 0.0 | 0.0 | 0.00 | 0.00 | 0.00 | 64 | 1019.8 |
| 20260507101046 | 30 | 194 | 0.0 | 0.0 | 0.00 | 0.00 | 0.00 | 65 | 1019.8 |
| 20260507100547 | 30 | 194 | 0.0 | 0.0 | 0.00 | 0.00 | 0.00 | 66 | 1019.8 |
| 20260507100046 | 30 | 194 | 0.0 | 0.0 | 0.00 | 0.00 | 0.00 | 66 | 1019.6 |
| 20260507095546 | 30 | 193 | 0.0 | 0.0 | 0.00 | 0.00 | 0.00 | 67 | 1019.8 |
| 20260507095312 | 29 | 194 | 0.0 | 0.0 | 0.00 | 0.00 | 0.00 | 70 | 1019.8 |
| 20260507094546 | 29 | 193 | 0.0 | 0.0 | 0.00 | 0.00 | 0.00 | 68 | 1019.9 |
| 20260507094046 | 29 | 194 | 0.0 | 0.0 | 0.00 | 0.00 | 0.00 | 70 | 1019.9 |
| 20260507093546 | 29 | 194 | 0.0 | 0.0 | 0.00 | 0.00 | 0.00 | 70 | 1019.8 |
| 20260507093046 | 29 | 194 | 0.0 | 0.0 | 0.00 | 0.00 | 0.00 | 72 | 1019.8 |
| 20260507092545 | 28 | 193 | 0.0 | 0.0 | 0.00 | 0.00 | 0.00 | 74 | 1019.8 |
| 20260507092045 | 28 | 194 | 0.0 | 0.0 | 0.00 | 0.00 | 0.00 | 73 | 1019.9 |
| 20260507091545 | 28 | 194 | 0.0 | 0.0 | 0.00 | 0.00 | 0.00 | 73 | 1019.9 |
| 20260507091045 | 28 | 194 | 0.0 | 0.0 | 0.00 | 0.00 | 0.00 | 75 | 1019.9 |
| 20260507090545 | 28 | 193 | 0.0 | 0.0 | 0.00 | 0.00 | 0.00 | 76 | 1019.9 |
| 20260507090312 | 28 | 194 | 0.0 | 0.0 | 0.00 | 0.00 | 0.00 | 75 | 1019.9 |
| 20260507085547 | 27 | 193 | 0.0 | 0.0 | 0.00 | 0.00 | 0.00 | 76 | 1019.8 |
| 20260507085314 | 27 | 194 | 0.0 | 0.0 | 0.00 | 0.00 | 0.00 | 77 | 1019.8 |
| 20260507084545 | 26 | 194 | 0.0 | 0.0 | 0.00 | 0.00 | 0.00 | 79 | 1019.8 |
| 20260507084038 | 26 | 194 | 0.0 | 0.0 | 0.00 | 0.00 | 0.00 | 80 | 1019.9 |
| 20260507083533 | 26 | 193 | 0.0 | 0.0 | 0.00 | 0.00 | 0.00 | 81 | 1020.0 |
| 20260507083028 | 26 | 193 | 0.0 | 0.0 | 0.00 | 0.00 | 0.00 | 82 | 1020.0 |
| 20260507082522 | 25 | 194 | 0.0 | 0.0 | 0.00 | 0.00 | 0.00 | 82 | 1020.0 |
| 20260507082015 | 25 | 194 | 0.0 | 0.0 | 0.00 | 0.00 | 0.00 | 83 | 1020.0 |
| 20260507081508 | 25 | 193 | 0.0 | 0.0 | 0.00 | 0.00 | 0.00 | 84 | 1020.0 |
| 20260507081003 | 25 | 194 | 0.0 | 0.0 | 0.00 | 0.00 | 0.00 | 84 | 1020.0 |
| 20260507080457 | 25 | 194 | 0.0 | 0.0 | 0.00 | 0.00 | 0.00 | 84 | 1020.0 |
| 20260507075951 | 24 | 194 | 0.0 | 0.0 | 0.00 | 0.00 | 0.00 | 85 | 1020.0 |
| 20260507075445 | 24 | 194 | 0.0 | 0.0 | 0.00 | 0.00 | 0.00 | 85 | 1020.0 |
| 20260507075200 | 24 | 193 | 0.0 | 0.0 | 0.00 | 0.00 | 0.00 | 85 | 1020.2 |
| 20260507074432 | 24 | 194 | 0.0 | 0.0 | 0.00 | 0.00 | 0.00 | 85 | 1020.2 |
| 20260507073927 | 24 | 193 | 0.0 | 0.0 | 0.00 | 0.00 | 0.00 | 85 | 1020.2 |
| 20260507073421 | 24 | 193 | 0.0 | 0.0 | 0.00 | 0.00 | 0.00 | 86 | 1020.3 |
| 20260507072916 | 24 | 194 | 0.0 | 0.0 | 0.00 | 0.00 | 0.00 | 85 | 1020.3 |
| 20260507072628 | 24 | 194 | 0.0 | 0.0 | 0.00 | 0.00 | 0.00 | 85 | 1020.2 |
| 20260507071904 | 25 | 193 | 0.0 | 0.0 | 0.00 | 0.00 | 0.00 | 85 | 1020.2 |
| 20260507071357 | 25 | 194 | 0.0 | 0.0 | 0.00 | 0.00 | 0.00 | 85 | 1020.2 |
| 20260507070851 | 25 | 194 | 0.0 | 0.0 | 0.00 | 0.00 | 0.00 | 85 | 1020.2 |
| 20260507070345 | 25 | 194 | 0.0 | 0.0 | 0.00 | 0.00 | 0.00 | 84 | 1020.3 |
| 20260507065839 | 25 | 194 | 0.0 | 0.0 | 0.00 | 0.00 | 0.00 | 82 | 1020.3 |
| 20260507065333 | 25 | 194 | 0.0 | 0.0 | 0.00 | 0.00 | 0.00 | 84 | 1020.3 |
| 20260507064827 | 24 | 193 | 0.0 | 0.0 | 0.00 | 0.00 | 0.00 | 84 | 1020.3 |
| 20260507064320 | 25 | 193 | 0.0 | 0.0 | 0.00 | 0.00 | 0.00 | 85 | 1020.3 |
| 20260507064258 | 25 | 194 | 0.0 | 0.0 | 0.00 | 0.00 | 0.00 | 85 | 1020.2 |
| 20260507063308 | 26 | 193 | 0.0 | 0.0 | 0.00 | 0.00 | 0.00 | 83 | 1020.2 |
| 20260507062803 | 26 | 193 | 0.0 | 0.0 | 0.00 | 0.00 | 0.00 | 82 | 1020.2 |
| 20260507062306 | 26 | 193 | 0.0 | 0.0 | 0.00 | 0.00 | 0.00 | 83 | 1020.0 |
| 20260507061808 | 26 | 194 | 0.0 | 0.0 | 0.00 | 0.00 | 0.00 | 82 | 1020.0 |
| 20260507060105 | 25 | 193 | 0.0 | 0.0 | 0.00 | 0.18 | 0.00 | 84 | 1019.9 |
| 20260507055829 | 25 | 194 | 0.0 | 0.0 | 0.00 | 0.18 | 0.19 | 85 | 1019.8 |
| 20260507055105 | 25 | 194 | 0.0 | 0.0 | 0.00 | 0.18 | 0.19 | 85 | 1019.8 |
| 20260507054605 | 25 | 193 | 0.0 | 0.0 | 0.00 | 0.18 | 0.19 | 85 | 1019.6 |
| 20260507054104 | 25 | 193 | 0.0 | 0.0 | 0.00 | 0.18 | 0.19 | 86 | 1019.6 |
| 20260507053822 | 25 | 194 | 0.0 | 0.0 | 0.00 | 0.18 | 0.19 | 85 | 1019.6 |
| 20260507053106 | 25 | 194 | 0.0 | 0.0 | 0.00 | 0.18 | 0.19 | 86 | 1019.5 |
| 20260507052605 | 24 | 194 | 0.0 | 0.0 | 0.00 | 0.18 | 0.19 | 86 | 1019.4 |
| 20260507052100 | 24 | 193 | 0.0 | 0.0 | 0.00 | 0.18 | 0.19 | 88 | 1019.5 |
| 20260507051601 | 24 | 193 | 0.0 | 0.0 | 0.00 | 0.18 | 0.19 | 86 | 1019.5 |
| 20260507051102 | 24 | 194 | 0.0 | 0.0 | 0.00 | 0.18 | 0.19 | 86 | 1019.4 |
| 20260507050600 | 24 | 194 | 0.0 | 0.0 | 0.00 | 0.18 | 0.19 | 87 | 1019.4 |
| 20260507050100 | 24 | 193 | 0.0 | 0.0 | 0.00 | 0.18 | 0.19 | 87 | 1019.4 |
| 20260507045602 | 24 | 193 | 0.0 | 0.0 | 0.00 | 0.18 | 0.19 | 87 | 1019.4 |
| 20260507045100 | 24 | 194 | 0.0 | 0.0 | 0.00 | 0.18 | 0.19 | 86 | 1019.4 |
| 20260507044601 | 24 | 193 | 0.0 | 0.0 | 0.00 | 0.18 | 0.19 | 87 | 1019.4 |
| 20260507044101 | 24 | 193 | 0.0 | 0.0 | 0.00 | 0.18 | 0.19 | 88 | 1019.4 |
| 20260507043822 | 24 | 193 | 0.0 | 0.0 | 0.00 | 0.18 | 0.19 | 88 | 1019.2 |
| 20260507043101 | 24 | 194 | 0.0 | 0.0 | 0.00 | 0.18 | 0.19 | 88 | 1019.1 |
| 20260507042601 | 24 | 194 | 0.0 | 0.0 | 0.00 | 0.18 | 0.19 | 89 | 1019.2 |
| 20260507042100 | 24 | 193 | 0.0 | 0.0 | 0.00 | 0.18 | 0.19 | 89 | 1019.2 |
| 20260507041601 | 24 | 194 | 0.0 | 0.0 | 0.00 | 0.18 | 0.19 | 89 | 1019.2 |
| 20260507041101 | 24 | 193 | 0.0 | 0.0 | 0.00 | 0.18 | 0.19 | 89 | 1019.2 |
| 20260507040600 | 24 | 194 | 0.0 | 0.0 | 0.00 | 0.18 | 0.19 | 90 | 1019.1 |
| 20260507040058 | 24 | 194 | 0.0 | 0.0 | 0.00 | 0.18 | 0.19 | 90 | 1019.1 |
| 20260507035558 | 24 | 193 | 0.0 | 0.0 | 0.00 | 0.18 | 0.19 | 89 | 1019.1 |
| 20260507035051 | 24 | 194 | 0.0 | 0.0 | 0.00 | 0.18 | 0.19 | 88 | 1019.0 |
| 20260507034547 | 24 | 194 | 0.0 | 0.0 | 0.00 | 0.18 | 0.19 | 90 | 1019.0 |
| 20260507034259 | 24 | 193 | 0.0 | 0.0 | 0.00 | 0.18 | 0.19 | 89 | 1019.0 |
| 20260507033534 | 24 | 194 | 0.0 | 0.0 | 0.00 | 0.18 | 0.19 | 89 | 1019.0 |
| 20260507033028 | 24 | 193 | 0.0 | 0.0 | 0.00 | 0.18 | 0.19 | 90 | 1019.0 |
| 20260507032522 | 24 | 194 | 0.0 | 0.0 | 0.00 | 0.18 | 0.19 | 90 | 1018.8 |
| 20260507032017 | 24 | 194 | 0.0 | 0.0 | 0.00 | 0.18 | 0.19 | 90 | 1018.8 |
| 20260507031511 | 24 | 193 | 0.0 | 0.0 | 0.00 | 0.18 | 0.19 | 90 | 1018.7 |
| 20260507031005 | 24 | 194 | 0.0 | 0.0 | 0.00 | 0.18 | 0.19 | 90 | 1018.7 |
| 20260507030727 | 24 | 194 | 0.0 | 0.0 | 0.00 | 0.18 | 0.19 | 90 | 1018.6 |
| 20260507025953 | 24 | 194 | 0.0 | 0.0 | 0.00 | 0.18 | 0.19 | 91 | 1018.6 |
| 20260507025447 | 24 | 193 | 0.0 | 0.0 | 0.00 | 0.18 | 0.19 | 91 | 1018.6 |
| 20260507024940 | 24 | 194 | 0.0 | 0.0 | 0.00 | 0.18 | 0.19 | 91 | 1018.6 |
| 20260507024434 | 24 | 193 | 0.0 | 0.0 | 0.00 | 0.18 | 0.19 | 91 | 1018.6 |
| 20260507023928 | 24 | 194 | 0.0 | 0.0 | 0.00 | 0.18 | 0.19 | 91 | 1018.6 |
| 20260507023422 | 24 | 194 | 0.0 | 0.0 | 0.00 | 0.18 | 0.19 | 91 | 1018.6 |
| 20260507022916 | 24 | 194 | 0.0 | 0.0 | 0.00 | 0.18 | 0.19 | 91 | 1018.4 |
| 20260507022409 | 24 | 193 | 0.0 | 0.0 | 0.00 | 0.18 | 0.19 | 91 | 1018.3 |
| 20260507021904 | 24 | 194 | 0.0 | 0.0 | 0.00 | 0.18 | 0.19 | 91 | 1018.3 |
| 20260507021358 | 24 | 194 | 0.0 | 0.0 | 0.00 | 0.18 | 0.19 | 91 | 1018.3 |
| 20260507020851 | 24 | 193 | 0.0 | 0.0 | 0.00 | 0.18 | 0.19 | 91 | 1018.3 |
| 20260507020346 | 24 | 194 | 0.0 | 0.0 | 0.00 | 0.18 | 0.19 | 91 | 1018.2 |
| 20260507020322 | 24 | 193 | 0.0 | 0.0 | 0.00 | 0.18 | 0.19 | 91 | 1018.3 |
| 20260507015333 | 24 | 193 | 0.0 | 0.0 | 0.00 | 0.18 | 0.19 | 91 | 1018.3 |
| 20260507014827 | 24 | 193 | 0.0 | 0.0 | 0.00 | 0.18 | 0.19 | 91 | 1018.3 |
| 20260507014323 | 24 | 193 | 0.0 | 0.0 | 0.00 | 0.18 | 0.19 | 91 | 1018.3 |
| 20260507013815 | 24 | 193 | 0.0 | 0.0 | 0.00 | 0.18 | 0.19 | 91 | 1018.2 |
| 20260507013536 | 25 | 194 | 0.0 | 0.0 | 0.00 | 0.18 | 0.19 | 91 | 1018.2 |
| 20260507012804 | 25 | 194 | 0.0 | 0.0 | 0.00 | 0.18 | 0.19 | 92 | 1018.2 |
| 20260507012257 | 24 | 193 | 0.0 | 0.0 | 0.00 | 0.18 | 0.19 | 92 | 1018.0 |
| 20260507012010 | 24 | 193 | 0.0 | 0.0 | 0.00 | 0.18 | 0.19 | 92 | 1018.0 |
| 20260507011504 | 24 | 194 | 0.0 | 0.0 | 0.00 | 0.18 | 0.19 | 92 | 1017.9 |
| 20260507010739 | 24 | 194 | 0.0 | 0.0 | 0.00 | 0.18 | 0.19 | 92 | 1017.9 |
| 20260507010721 | 24 | 193 | 0.0 | 0.0 | 0.00 | 0.18 | 0.19 | 92 | 1017.9 |
| 20260507005728 | 25 | 194 | 0.0 | 0.0 | 0.00 | 0.18 | 0.19 | 92 | 1017.9 |
| 20260507005223 | 25 | 194 | 0.0 | 0.0 | 0.00 | 0.18 | 0.19 | 92 | 1017.9 |
| 20260507004716 | 25 | 193 | 0.0 | 0.0 | 0.00 | 0.18 | 0.19 | 92 | 1017.9 |
| 20260507004210 | 25 | 194 | 0.0 | 0.0 | 0.00 | 0.18 | 0.19 | 92 | 1017.8 |
| 20260507003703 | 25 | 193 | 0.0 | 0.0 | 0.00 | 0.18 | 0.19 | 92 | 1017.8 |
| 20260507003415 | 25 | 193 | 0.0 | 0.0 | 0.00 | 0.18 | 0.19 | 92 | 1017.8 |
| 20260507002652 | 25 | 194 | 0.0 | 0.0 | 0.00 | 0.18 | 0.19 | 92 | 1017.8 |
| 20260507002416 | 25 | 194 | 0.0 | 0.0 | 0.00 | 0.18 | 0.19 | 92 | 1017.6 |
| 20260507001906 | 25 | 194 | 0.0 | 0.0 | 0.00 | 0.18 | 0.19 | 92 | 1017.6 |
| 20260507001133 | 25 | 194 | 0.0 | 0.0 | 0.00 | 0.18 | 0.19 | 92 | 1017.8 |
| 20260507000627 | 25 | 194 | 0.0 | 0.0 | 0.00 | 0.18 | 0.19 | 92 | 1017.8 |
| 20260507000123 | 25 | 194 | 0.0 | 0.0 | 0.00 | 0.18 | 0.19 | 92 | 1017.8 |
| 20260506235616 | 26 | 194 | 0.0 | 0.0 | 0.00 | 0.18 | 0.19 | 92 | 1017.8 |
| 20260506235109 | 26 | 194 | 0.0 | 0.0 | 0.00 | 0.18 | 0.19 | 92 | 1017.8 |
| 20260506234605 | 26 | 193 | 0.0 | 0.0 | 0.00 | 0.18 | 0.19 | 92 | 1017.8 |
| 20260506234059 | 26 | 194 | 0.0 | 0.0 | 0.00 | 0.18 | 0.19 | 92 | 1017.8 |
| 20260506233813 | 26 | 194 | 0.0 | 0.0 | 0.00 | 0.18 | 0.19 | 92 | 1017.8 |
| 20260506233306 | 26 | 194 | 0.0 | 0.0 | 0.00 | 0.18 | 0.19 | 92 | 1017.8 |
| 20260506232542 | 26 | 193 | 0.0 | 0.0 | 0.00 | 0.18 | 0.19 | 92 | 1017.8 |
| 20260506232035 | 26 | 193 | 0.0 | 0.0 | 0.00 | 0.18 | 0.19 | 92 | 1017.8 |
| 20260506231528 | 26 | 194 | 0.0 | 0.0 | 0.00 | 0.18 | 0.19 | 93 | 1017.8 |
| 20260506231023 | 26 | 194 | 0.0 | 0.0 | 0.00 | 0.18 | 0.19 | 93 | 1017.8 |
| 20260506230517 | 26 | 194 | 0.0 | 0.0 | 0.01 | 0.18 | 0.19 | 92 | 1017.6 |
| 20260506230011 | 26 | 193 | 0.0 | 0.0 | 0.01 | 0.18 | 0.19 | 92 | 1017.6 |
| 20260506225505 | 26 | 194 | 0.0 | 0.0 | 0.01 | 0.18 | 0.19 | 92 | 1017.6 |
| 20260506224959 | 26 | 193 | 0.0 | 0.0 | 0.01 | 0.18 | 0.19 | 92 | 1017.6 |
| 20260506224453 | 26 | 194 | 0.0 | 0.0 | 0.01 | 0.18 | 0.19 | 93 | 1017.6 |
| 20260506223947 | 26 | 194 | 0.0 | 0.0 | 0.01 | 0.18 | 0.19 | 92 | 1017.5 |
| 20260506223441 | 26 | 194 | 0.0 | 0.0 | 0.01 | 0.18 | 0.19 | 93 | 1017.4 |
| 20260506222935 | 26 | 195 | 0.0 | 0.0 | 0.01 | 0.18 | 0.19 | 93 | 1017.5 |